createdAt,value
2022-12-01T00:08:49.624Z,5.6
2022-12-01T00:18:50.427Z,5.6
2022-12-01T00:28:50.902Z,5.5
2022-12-01T00:38:51.669Z,5.5
2022-12-01T00:48:52.126Z,5.5
2022-12-01T00:58:52.735Z,5.5
2022-12-01T01:08:53.138Z,5.5
2022-12-01T01:18:53.713Z,5.5
2022-12-01T01:28:53.919Z,5.5
2022-12-01T01:38:54.228Z,5.4
2022-12-01T01:48:54.980Z,5.4
2022-12-01T01:58:55.711Z,5.5
2022-12-01T02:08:56.207Z,5.5
2022-12-01T02:18:56.450Z,5.5
2022-12-01T02:28:56.646Z,5.5
2022-12-01T02:38:57.031Z,5.4
2022-12-01T02:48:57.436Z,5.5
2022-12-01T02:58:57.542Z,5.5
2022-12-01T03:08:58.365Z,5.5
2022-12-01T03:18:58.736Z,5.5
2022-12-01T03:28:59.484Z,5.5
2022-12-01T03:38:59.684Z,5.5
2022-12-01T03:49:00.326Z,5.5
2022-12-01T03:59:01.063Z,5.5
2022-12-01T04:09:01.393Z,5.5
2022-12-01T04:19:02.008Z,5.5
2022-12-01T04:29:02.486Z,5.5
2022-12-01T04:39:03.137Z,5.5
2022-12-01T04:49:04.117Z,5.5
2022-12-01T04:59:04.410Z,5.5
2022-12-01T05:09:05.346Z,5.5
2022-12-01T05:19:05.757Z,5.5
2022-12-01T05:29:06.680Z,5.5
2022-12-01T05:39:07.540Z,5.5
2022-12-01T05:49:07.806Z,5.4
2022-12-01T05:59:08.120Z,5.4
2022-12-01T06:09:09.128Z,5.4
2022-12-01T06:19:09.372Z,5.4
2022-12-01T06:29:10.349Z,5.3
2022-12-01T06:39:10.505Z,5.4
2022-12-01T06:49:11.549Z,5.3
2022-12-01T06:59:11.904Z,5.3
2022-12-01T07:09:12.253Z,5.3
2022-12-01T07:19:13.187Z,5.3
2022-12-01T07:29:13.718Z,5.3
2022-12-01T07:39:14.256Z,5.3
2022-12-01T07:49:15.026Z,5.3
2022-12-01T07:59:15.498Z,5.4
2022-12-01T08:09:15.825Z,5.4
2022-12-01T08:19:16.387Z,5.4
2022-12-01T08:29:20.068Z,5.5
2022-12-01T08:39:17.748Z,5.5
2022-12-01T08:49:18.701Z,5.4
2022-12-01T08:59:19.734Z,5.5
2022-12-01T09:09:20.269Z,5.3
2022-12-01T09:19:24.432Z,5.3
2022-12-01T09:29:21.493Z,5.4
2022-12-01T09:39:21.932Z,5.5
2022-12-01T09:49:22.993Z,5.5
2022-12-01T09:59:23.237Z,5.5
2022-12-01T10:09:23.394Z,5.5
2022-12-01T10:19:24.398Z,5.5
2022-12-01T10:29:24.915Z,5.5
2022-12-01T10:39:25.497Z,5.5
2022-12-01T10:49:26.297Z,5.6
2022-12-01T10:59:27.304Z,5.7
2022-12-01T11:09:28.092Z,5.7
2022-12-01T11:19:28.603Z,5.7
2022-12-01T11:29:29.274Z,5.7
2022-12-01T11:39:30.200Z,5.7
2022-12-01T11:49:30.351Z,5.7
2022-12-01T11:59:30.516Z,5.7
2022-12-01T12:09:30.967Z,5.7
2022-12-01T12:19:34.203Z,5.7
2022-12-01T12:29:32.347Z,5.7
2022-12-01T12:39:32.788Z,5.7
2022-12-01T12:49:33.192Z,5.7
2022-12-01T12:59:34.010Z,5.8
2022-12-01T13:09:34.705Z,5.9
2022-12-01T13:19:35.369Z,5.8
2022-12-01T13:29:41.005Z,5.8
2022-12-01T13:39:36.609Z,5.7
2022-12-01T13:49:36.682Z,5.8
2022-12-01T13:59:37.067Z,5.8
2022-12-01T14:09:37.650Z,5.7
2022-12-01T14:19:38.347Z,5.7
2022-12-01T14:29:39.155Z,5.7
2022-12-01T14:39:39.331Z,5.6
2022-12-01T14:49:39.909Z,5.6
2022-12-01T15:09:41.004Z,5.5
2022-12-01T15:19:41.984Z,5.4
2022-12-01T15:29:42.441Z,5.5
2022-12-01T15:39:43.274Z,5.4
2022-12-01T15:49:43.363Z,5.4
2022-12-01T15:59:43.630Z,5.4
2022-12-01T16:09:44.433Z,5.4
2022-12-01T16:29:46.224Z,5.4
2022-12-01T16:39:46.645Z,5.3
2022-12-01T16:49:47.639Z,5.3
2022-12-01T16:59:48.651Z,5.2
2022-12-01T17:09:48.967Z,5.2
2022-12-01T17:19:49.065Z,5.2
2022-12-01T17:29:49.931Z,5.1
2022-12-01T17:39:50.738Z,5.1
2022-12-01T17:49:51.023Z,5
2022-12-01T17:59:51.198Z,5
2022-12-01T18:09:52.151Z,4.9
2022-12-01T18:19:52.567Z,4.9
2022-12-01T18:29:52.751Z,4.8
2022-12-01T18:39:53.536Z,4.8
2022-12-01T18:49:54.279Z,4.8
2022-12-01T18:59:54.993Z,4.7
2022-12-01T19:19:56.325Z,4.5
2022-12-01T19:29:57.069Z,4.5
2022-12-01T19:39:57.339Z,4.4
2022-12-01T19:49:57.417Z,4.4
2022-12-01T19:59:58.308Z,4.3
2022-12-01T20:09:58.674Z,4.3
2022-12-01T20:40:00.531Z,4.2
2022-12-01T20:50:01.327Z,4.2
2022-12-01T21:00:02.036Z,4.2
2022-12-01T21:10:02.662Z,4.1
2022-12-01T21:20:03.082Z,4
2022-12-01T21:30:03.972Z,4
2022-12-01T21:40:04.482Z,4
2022-12-01T21:50:05.010Z,3.9
2022-12-01T22:00:06.037Z,3.9
2022-12-01T22:10:09.209Z,3.8
2022-12-01T22:20:07.706Z,3.8
2022-12-01T22:40:08.175Z,3.5
2022-12-01T22:50:08.576Z,3.5
2022-12-01T23:20:10.354Z,3.3
2022-12-01T23:30:11.048Z,3.2
2022-12-01T23:40:11.664Z,3.2
2022-12-01T23:50:12.512Z,3.1
